Time;durP1;ratioP1;P1;durP2;ratioP2;P2;SDS_P1;SDS_P2;PMS_P1;PMS_P2;Temp;Humidity;BMP_temperature;BMP_pressure;BME280_temperature;BME280_humidity;BME280_pressure;Samples;Min_cycle;Max_cycle;Signal;HPM_P1;HPM_P2
2022/06/07 00:00:15;;;;;;;11.77;8.10;;;;;;;16.76;100.00;95477.81;5029136;28;20116;-71
2022/06/07 00:03:00;;;;;;;14.90;8.15;;;;;;;16.75;100.00;95476.25;5031390;28;20575;-72
2022/06/07 00:05:26;;;;;;;18.55;8.48;;;;;;;16.74;100.00;95480.00;5031600;28;20116;-72
2022/06/07 00:07:54;;;;;;;13.88;8.20;;;;;;;16.72;100.00;95479.53;5031418;28;20049;-72
2022/06/07 00:10:23;;;;;;;11.63;7.70;;;;;;;16.66;100.00;95475.44;5024586;28;20582;-71
2022/06/07 00:12:49;;;;;;;11.50;6.88;;;;;;;16.64;100.00;95477.63;5029861;28;20037;-71
2022/06/07 00:15:15;;;;;;;13.52;7.38;;;;;;;16.60;100.00;95482.00;5018738;28;20050;-71
2022/06/07 00:17:41;;;;;;;12.13;8.07;;;;;;;16.51;100.00;95489.16;5031276;28;20115;-72
2022/06/07 00:20:08;;;;;;;14.30;8.88;;;;;;;16.43;100.00;95483.53;5030805;28;20041;-71
2022/06/07 00:22:34;;;;;;;14.68;8.60;;;;;;;16.36;100.00;95493.78;5028804;28;20041;-72
2022/06/07 00:25:00;;;;;;;16.88;8.88;;;;;;;16.29;100.00;95490.78;5030640;28;20041;-72
2022/06/07 00:27:26;;;;;;;13.52;8.40;;;;;;;16.24;100.00;95502.31;5031281;28;20037;-71
2022/06/07 00:29:52;;;;;;;12.35;8.32;;;;;;;16.14;100.00;95507.13;5030300;28;20042;-71
2022/06/07 00:32:20;;;;;;;14.00;8.98;;;;;;;16.03;100.00;95502.09;5030873;28;20068;-72
2022/06/07 00:34:46;;;;;;;13.82;8.32;;;;;;;16.04;100.00;95508.94;5030026;28;20041;-72
2022/06/07 00:37:12;;;;;;;16.88;8.75;;;;;;;16.05;100.00;95509.75;5030646;28;20053;-72
2022/06/07 00:39:38;;;;;;;15.80;9.35;;;;;;;16.01;100.00;95509.53;5026026;28;20415;-72
2022/06/07 00:42:04;;;;;;;17.55;9.23;;;;;;;15.97;100.00;95508.59;5027664;28;20076;-71
2022/06/07 00:44:36;;;;;;;14.18;8.90;;;;;;;15.92;100.00;95511.38;5030367;28;20046;-71
2022/06/07 00:47:09;;;;;;;17.13;9.30;;;;;;;15.87;100.00;95519.44;5030699;28;20049;-71
2022/06/07 00:49:55;;;;;;;17.50;9.30;;;;;;;15.84;100.00;95518.19;5030744;28;20055;-71
2022/06/07 00:52:25;;;;;;;14.65;8.98;;;;;;;15.90;100.00;95513.53;5026981;28;20091;-71
2022/06/07 00:54:51;;;;;;;18.38;9.68;;;;;;;15.84;100.00;95520.06;5030318;28;20041;-71
2022/06/07 00:57:17;;;;;;;15.70;9.50;;;;;;;15.71;100.00;95517.13;5030443;28;20037;-71
2022/06/07 00:59:43;;;;;;;14.95;9.20;;;;;;;15.62;100.00;95534.88;5028587;28;20120;-71
2022/06/07 01:02:09;;;;;;;16.27;9.23;;;;;;;15.60;100.00;95537.00;5030355;28;20041;-71
2022/06/07 01:04:35;;;;;;;15.20;8.80;;;;;;;15.51;100.00;95533.53;5029969;28;20126;-71
2022/06/07 01:12:29;;;;;;;14.90;7.78;;;;;;;15.04;100.00;95539.81;5017556;28;20056;-71
2022/06/07 01:14:55;;;;;;;16.67;7.85;;;;;;;14.94;100.00;95537.38;5030124;28;20052;-71
2022/06/07 01:17:20;;;;;;;16.42;7.80;;;;;;;14.92;100.00;95542.19;5030273;28;20049;-71
2022/06/07 01:19:47;;;;;;;18.05;8.43;;;;;;;14.78;100.00;95536.09;5028414;28;20037;-71
2022/06/07 01:22:13;;;;;;;15.02;7.72;;;;;;;14.69;100.00;95528.84;5023301;28;20037;-71
2022/06/07 01:24:39;;;;;;;13.30;7.28;;;;;;;14.67;100.00;95528.38;5029378;28;20112;-71
2022/06/07 01:27:06;;;;;;;18.50;8.20;;;;;;;14.54;100.00;95526.47;5030176;28;20117;-71
2022/06/07 01:29:32;;;;;;;14.95;7.95;;;;;;;14.55;100.00;95520.09;5029561;28;20045;-70
2022/06/07 01:31:57;;;;;;;16.15;8.15;;;;;;;14.49;100.00;95522.03;5022579;28;20045;-71
2022/06/07 01:34:23;;;;;;;17.77;8.05;;;;;;;14.27;100.00;95522.72;5028867;28;20049;-72
2022/06/07 01:36:49;;;;;;;14.10;8.10;;;;;;;14.17;100.00;95520.25;5030004;28;20513;-71
2022/06/07 01:41:59;;;;;;;17.88;8.95;;;;;;;14.09;100.00;95507.69;5025581;28;20038;-71
2022/06/07 01:44:29;;;;;;;18.60;9.68;;;;;;;14.12;100.00;95501.81;5029053;28;20099;-71
2022/06/07 01:46:57;;;;;;;20.27;8.90;;;;;;;13.98;100.00;95505.22;5030490;28;20049;-71
2022/06/07 01:49:24;;;;;;;18.13;8.40;;;;;;;13.98;100.00;95497.28;5029210;28;20049;-71
2022/06/07 01:51:51;;;;;;;15.50;8.20;;;;;;;13.79;100.00;95488.59;5027458;28;20051;-72
2022/06/07 01:54:17;;;;;;;14.13;8.55;;;;;;;13.92;100.00;95493.16;5029095;28;20034;-71
2022/06/07 01:56:42;;;;;;;17.42;9.13;;;;;;;13.73;100.00;95484.47;5029211;28;20555;-71
2022/06/07 01:59:08;;;;;;;21.70;10.00;;;;;;;13.83;100.00;95484.31;5029084;28;20541;-72
2022/06/07 02:01:34;;;;;;;17.70;9.20;;;;;;;13.91;100.00;95475.72;5023164;28;20038;-72
2022/06/07 02:03:59;;;;;;;18.00;9.10;;;;;;;13.90;100.00;95463.56;5028750;28;20522;-72
2022/06/07 02:06:25;;;;;;;16.30;8.52;;;;;;;13.67;100.00;95455.47;5022888;28;20401;-72
2022/06/07 02:08:51;;;;;;;16.15;8.85;;;;;;;13.81;100.00;95460.03;5023131;28;20046;-72
2022/06/07 02:11:22;;;;;;;17.80;9.05;;;;;;;13.69;100.00;95453.34;5028761;28;20045;-72
2022/06/07 02:13:48;;;;;;;19.98;9.32;;;;;;;13.71;100.00;95460.19;5026215;28;20053;-72
2022/06/07 02:16:16;;;;;;;14.90;8.77;;;;;;;13.69;100.00;95450.69;5029216;28;20662;-72
2022/06/07 02:18:42;;;;;;;19.38;10.23;;;;;;;13.74;100.00;95449.03;5027945;28;20045;-72
2022/06/07 02:21:08;;;;;;;16.95;9.75;;;;;;;13.67;100.00;95439.59;5027751;28;20108;-72
2022/06/07 02:23:36;;;;;;;18.83;9.50;;;;;;;13.63;100.00;95443.91;5024759;28;20041;-72
2022/06/07 02:26:17;;;;;;;18.35;9.60;;;;;;;13.72;100.00;95440.59;5028112;28;20045;-72
2022/06/07 02:28:47;;;;;;;26.42;9.98;;;;;;;13.64;100.00;95445.47;5028885;28;20175;-72
2022/06/07 02:31:15;;;;;;;14.00;8.73;;;;;;;13.56;100.00;95448.81;5024903;28;20052;-72
2022/06/07 02:33:41;;;;;;;16.58;9.00;;;;;;;13.52;100.00;95458.38;5028062;28;20117;-72
2022/06/07 02:36:08;;;;;;;17.67;9.43;;;;;;;13.47;100.00;95461.09;5028735;28;20144;-73
2022/06/07 02:38:34;;;;;;;17.52;9.98;;;;;;;13.50;100.00;95457.88;5028390;28;20045;-72
2022/06/07 02:41:03;;;;;;;20.58;10.95;;;;;;;13.60;100.00;95455.06;5028749;28;20101;-73
2022/06/07 02:43:29;;;;;;;18.10;9.35;;;;;;;13.58;100.00;95451.94;5027056;28;20074;-73
2022/06/07 02:45:56;;;;;;;17.08;10.13;;;;;;;13.51;100.00;95456.81;5026351;28;20247;-72
2022/06/07 02:48:21;;;;;;;26.10;10.70;;;;;;;13.64;100.00;95453.41;5027709;28;20565;-72
2022/06/07 02:50:46;;;;;;;19.45;10.88;;;;;;;13.65;100.00;95457.63;5028854;28;20045;-73
2022/06/07 02:53:13;;;;;;;18.60;9.70;;;;;;;13.67;100.00;95471.34;5028694;28;20049;-72
2022/06/07 02:55:39;;;;;;;16.70;9.65;;;;;;;13.65;100.00;95468.19;5025725;28;20050;-72
2022/06/07 02:58:05;;;;;;;17.40;10.00;;;;;;;13.63;100.00;95470.38;5027378;28;20045;-72
2022/06/07 03:00:30;;;;;;;17.90;9.75;;;;;;;13.69;100.00;95469.19;5028540;28;20119;-72
2022/06/07 03:02:56;;;;;;;18.40;10.10;;;;;;;13.64;100.00;95471.91;5022217;28;20041;-71
2022/06/07 03:05:22;;;;;;;19.77;11.73;;;;;;;13.64;100.00;95471.91;5023780;28;20045;-73
2022/06/07 03:07:48;;;;;;;19.88;10.40;;;;;;;13.57;100.00;95474.16;5028235;28;20746;-72
2022/06/07 03:10:14;;;;;;;17.33;9.50;;;;;;;13.56;100.00;95475.25;5026384;28;20045;-72
2022/06/07 03:12:39;;;;;;;15.55;9.52;;;;;;;13.57;100.00;95479.44;5017477;28;20046;-72
2022/06/07 03:15:08;;;;;;;17.23;9.70;;;;;;;13.54;100.00;95472.09;5028016;28;20046;-72
2022/06/07 03:17:34;;;;;;;20.48;10.18;;;;;;;13.51;100.00;95477.94;5028910;28;20045;-72
2022/06/07 03:19:59;;;;;;;17.08;9.55;;;;;;;13.42;100.00;95480.47;5027103;28;20048;-72
2022/06/07 03:22:25;;;;;;;18.45;9.57;;;;;;;13.46;100.00;95475.38;5017723;28;20099;-72
2022/06/07 03:24:50;;;;;;;16.50;9.00;;;;;;;13.47;100.00;95476.94;5022361;28;20519;-71
2022/06/07 03:27:16;;;;;;;15.75;8.90;;;;;;;13.56;100.00;95474.44;5028487;28;20041;-72
2022/06/07 03:29:42;;;;;;;21.13;10.15;;;;;;;13.50;100.00;95471.09;5023640;28;20042;-71
2022/06/07 03:32:09;;;;;;;17.35;8.45;;;;;;;13.57;100.00;95471.50;5027943;28;20121;-72
2022/06/07 03:34:35;;;;;;;13.15;7.75;;;;;;;13.53;100.00;95478.44;5028111;28;20041;-71
2022/06/07 03:37:01;;;;;;;11.40;6.15;;;;;;;13.42;100.00;95479.66;5028429;28;20116;-72
2022/06/07 03:39:27;;;;;;;9.73;5.88;;;;;;;13.45;100.00;95484.41;5023209;28;20057;-72
2022/06/07 03:41:53;;;;;;;11.30;6.05;;;;;;;13.47;100.00;95476.94;5023430;28;20050;-72
2022/06/07 03:44:18;;;;;;;11.32;6.22;;;;;;;13.46;100.00;95481.47;5027780;28;20119;-72
2022/06/07 03:46:46;;;;;;;11.90;6.45;;;;;;;13.50;100.00;95476.38;5028112;28;20507;-72
2022/06/07 03:49:12;;;;;;;12.25;6.07;;;;;;;13.52;100.00;95474.25;5027845;28;20068;-72
2022/06/07 03:51:39;;;;;;;9.00;6.00;;;;;;;13.47;100.00;95479.59;5026435;28;20404;-72
2022/06/07 03:54:05;;;;;;;11.20;6.10;;;;;;;13.38;100.00;95483.97;5014415;28;20709;-72
2022/06/07 03:56:31;;;;;;;13.00;6.80;;;;;;;13.49;100.00;95480.09;5026570;28;20052;-72
2022/06/07 03:58:57;;;;;;;13.02;7.28;;;;;;;13.46;100.00;95475.38;5029102;28;20061;-72
2022/06/07 04:01:25;;;;;;;12.27;7.97;;;;;;;13.48;100.00;95478.53;5030943;28;20045;-72
2022/06/07 04:03:54;;;;;;;14.25;8.30;;;;;;;13.45;100.00;95479.88;5031710;28;20060;-72
2022/06/07 04:06:29;;;;;;;15.93;8.70;;;;;;;13.56;100.00;95480.53;5031168;28;20041;-72
2022/06/07 04:08:55;;;;;;;;;;;;;;;13.52;100.00;95479.53;5030147;28;20120;-72
2022/06/07 04:11:23;;;;;;;13.68;7.35;;;;;;;13.48;100.00;95483.81;5029198;28;19921;-72
2022/06/07 04:13:50;;;;;;;13.25;7.50;;;;;;;13.48;100.00;95478.53;5028739;28;20033;-72
2022/06/07 04:16:18;;;;;;;12.93;7.97;;;;;;;13.49;100.00;95478.25;5030855;28;20038;-72
2022/06/07 04:18:44;;;;;;;15.25;8.18;;;;;;;13.41;100.00;95478.13;5033317;28;20044;-72
2022/06/07 04:21:10;;;;;;;13.98;7.28;;;;;;;13.27;100.00;95470.84;5027295;28;20050;-72
2022/06/07 04:23:36;;;;;;;11.25;6.28;;;;;;;13.29;100.00;95471.38;5030002;28;20051;-71
2022/06/07 04:26:11;;;;;;;11.82;6.57;;;;;;;13.25;100.00;95465.09;5029432;28;20041;-72
2022/06/07 04:28:37;;;;;;;12.90;6.82;;;;;;;13.12;100.00;95466.59;5020039;28;20092;-72
2022/06/07 04:31:09;;;;;;;12.18;7.22;;;;;;;13.26;100.00;95466.66;5031185;28;20495;-72
2022/06/07 04:33:35;;;;;;;10.75;6.90;;;;;;;13.25;100.00;95469.59;5020655;28;20076;-72
2022/06/07 04:36:00;;;;;;;14.82;7.35;;;;;;;13.29;100.00;95466.09;5028234;28;20079;-71
2022/06/07 04:38:26;;;;;;;10.90;6.57;;;;;;;13.18;100.00;95464.66;5028383;28;20110;-72
2022/06/07 04:40:51;;;;;;;11.88;6.25;;;;;;;13.24;100.00;95466.16;5031113;28;20060;-72
2022/06/07 04:43:17;;;;;;;13.05;6.60;;;;;;;13.24;100.00;95463.50;5029123;28;20137;-72
2022/06/07 04:45:42;;;;;;;14.48;7.13;;;;;;;13.16;100.00;95467.59;5030845;28;20048;-72
2022/06/07 04:48:10;;;;;;;10.65;6.25;;;;;;;13.13;100.00;95472.66;5030936;28;20037;-72
2022/06/07 04:50:36;;;;;;;16.13;6.43;;;;;;;13.23;100.00;95472.53;5020458;28;20061;-72
2022/06/07 04:53:02;;;;;;;14.10;6.45;;;;;;;13.24;100.00;95471.44;5031625;28;20115;-72
2022/06/07 04:55:27;;;;;;;11.52;6.22;;;;;;;13.30;100.00;95467.66;5029813;28;20045;-72
2022/06/07 04:57:53;;;;;;;11.63;6.45;;;;;;;13.31;100.00;95474.50;5030721;28;20041;-72
2022/06/07 05:00:19;;;;;;;8.75;5.18;;;;;;;13.23;100.00;95458.50;5027607;28;20112;-72
2022/06/07 05:02:47;;;;;;;11.77;5.82;;;;;;;13.22;100.00;95460.38;5030693;28;20099;-71
2022/06/07 05:05:15;;;;;;;10.15;5.50;;;;;;;13.15;100.00;95455.44;5030267;28;20041;-72
2022/06/07 05:07:41;;;;;;;10.82;5.72;;;;;;;13.03;100.00;95456.94;5028909;28;20060;-72
2022/06/07 05:10:10;;;;;;;10.30;6.38;;;;;;;13.08;100.00;95459.53;5028764;28;20522;-71
2022/06/07 05:12:36;;;;;;;12.68;6.97;;;;;;;13.16;100.00;95451.75;5020481;28;20048;-71
2022/06/07 05:15:04;;;;;;;14.48;7.22;;;;;;;13.30;100.00;95454.44;5030066;28;20057;-72
2022/06/07 05:17:30;;;;;;;13.00;7.05;;;;;;;13.33;100.00;95451.22;5030980;28;20052;-71
2022/06/07 05:19:55;;;;;;;13.52;7.55;;;;;;;13.32;100.00;95447.00;5029632;28;20407;-71
2022/06/07 05:22:21;;;;;;;19.00;7.97;;;;;;;13.38;100.00;95457.53;5021345;28;20111;-71
2022/06/07 05:24:47;;;;;;;12.93;7.78;;;;;;;13.45;100.00;95452.69;5026875;28;20041;-72
2022/06/07 05:27:16;;;;;;;15.98;7.97;;;;;;;13.39;100.00;95464.38;5030431;28;20484;-71
2022/06/07 05:29:47;;;;;;;14.93;7.32;;;;;;;13.36;100.00;95459.69;5025335;28;20042;-72
2022/06/07 05:32:13;;;;;;;14.57;7.43;;;;;;;13.28;100.00;95453.94;5030673;28;20082;-73
2022/06/07 05:34:39;;;;;;;12.45;6.93;;;;;;;13.34;100.00;95452.81;5028931;28;20038;-72
2022/06/07 05:37:04;;;;;;;11.85;6.57;;;;;;;13.43;100.00;95454.81;5030178;28;20537;-72
2022/06/07 05:39:30;;;;;;;15.40;8.18;;;;;;;13.51;100.00;95451.50;5023117;28;20431;-72
2022/06/07 05:41:57;;;;;;;15.40;8.70;;;;;;;13.62;100.00;95450.28;5025128;28;20049;-72
2022/06/07 05:44:24;;;;;;;15.20;8.27;;;;;;;13.59;100.00;95442.94;5029908;28;20044;-72
2022/06/07 05:46:52;;;;;;;14.63;7.70;;;;;;;13.57;100.00;95439.78;5028749;28;20056;-72
2022/06/07 05:49:19;;;;;;;11.40;6.82;;;;;;;13.53;100.00;95444.06;5029597;28;20064;-74
2022/06/07 05:51:46;;;;;;;12.57;7.57;;;;;;;13.48;100.00;95452.09;5026415;28;20042;-72
2022/06/07 05:54:13;;;;;;;13.88;6.40;;;;;;;13.45;100.00;95447.38;5029601;28;20487;-72
2022/06/07 05:56:38;;;;;;;10.50;5.47;;;;;;;13.41;100.00;95457.75;5027751;28;20041;-73
2022/06/07 05:59:07;;;;;;;13.30;5.28;;;;;;;13.38;100.00;95457.53;5028808;28;20048;-73
2022/06/07 06:01:34;;;;;;;9.93;5.57;;;;;;;13.23;100.00;95463.81;5028268;28;20518;-73
2022/06/07 06:04:03;;;;;;;11.13;5.10;;;;;;;13.24;100.00;95468.78;5029583;28;20045;-72
2022/06/07 06:06:29;;;;;;;8.77;5.47;;;;;;;13.21;100.00;95464.09;5028409;28;20046;-73
2022/06/07 06:11:39;;;;;;;13.52;7.18;;;;;;;13.11;100.00;95458.94;5015446;28;20045;-72
2022/06/07 06:14:04;;;;;;;11.57;7.10;;;;;;;13.22;100.00;95456.97;5026756;28;20491;-72
2022/06/07 06:16:30;;;;;;;13.18;7.10;;;;;;;13.16;100.00;95450.97;5029988;28;20053;-73
2022/06/07 06:18:57;;;;;;;11.48;7.00;;;;;;;13.23;100.00;95455.88;5028937;28;20041;-72
2022/06/07 06:21:27;;;;;;;15.90;8.18;;;;;;;13.24;100.00;95458.22;5026390;28;20064;-75
2022/06/07 06:23:52;;;;;;;12.50;7.80;;;;;;;13.32;100.00;95449.66;5027433;28;20053;-75
2022/06/07 06:26:20;;;;;;;13.48;8.00;;;;;;;13.30;100.00;95446.53;5028427;28;20630;-75
2022/06/07 06:28:46;;;;;;;13.93;7.40;;;;;;;13.34;100.00;95452.81;5024506;28;20038;-74
2022/06/07 06:31:13;;;;;;;14.52;7.78;;;;;;;13.30;100.00;95451.81;5027521;28;20077;-74
2022/06/07 06:33:40;;;;;;;15.80;8.27;;;;;;;13.23;100.00;95451.38;5024720;28;20038;-72
2022/06/07 06:36:08;;;;;;;17.00;9.38;;;;;;;13.32;100.00;95449.66;5027243;28;20136;-76
2022/06/07 06:38:34;;;;;;;16.65;8.55;;;;;;;13.38;100.00;95460.97;5025793;28;20049;-77
2022/06/07 06:41:07;;;;;;;13.57;8.30;;;;;;;13.30;100.00;95454.44;5029279;28;20491;-75
2022/06/07 06:43:33;;;;;;;16.58;8.07;;;;;;;13.36;100.00;95463.13;5026160;28;20065;-75
2022/06/07 06:46:10;;;;;;;11.77;6.93;;;;;;;13.21;100.00;95466.72;5027447;28;20061;-75
2022/06/07 06:48:36;;;;;;;12.98;7.13;;;;;;;13.31;100.00;95474.50;5031140;28;20048;-76
2022/06/07 06:51:04;;;;;;;13.55;7.45;;;;;;;13.25;100.00;95470.38;5023611;28;20045;-75
2022/06/07 06:53:31;;;;;;;11.57;7.55;;;;;;;13.40;100.00;95465.97;5020113;28;20099;-76
2022/06/07 06:55:57;;;;;;;13.05;8.07;;;;;;;13.41;100.00;95462.25;5028226;28;20041;-76
2022/06/07 06:58:25;;;;;;;15.35;8.18;;;;;;;13.40;100.00;95476.53;5024983;28;20041;-75
2022/06/07 07:01:02;;;;;;;15.32;7.50;;;;;;;13.36;100.00;95481.63;5023907;28;20052;-76
2022/06/07 07:03:29;;;;;;;14.90;7.90;;;;;;;13.40;100.00;95473.88;5027813;28;20038;-74
2022/06/07 07:05:56;;;;;;;13.65;6.78;;;;;;;13.34;100.00;95484.53;5026630;28;20079;-74
2022/06/07 07:08:23;;;;;;;14.75;7.53;;;;;;;13.38;100.00;95470.75;5026523;28;20554;-76
2022/06/07 07:10:49;;;;;;;13.00;7.40;;;;;;;13.48;100.00;95483.81;5028310;28;20053;-75
2022/06/07 07:13:15;;;;;;;14.85;6.63;;;;;;;13.12;100.00;95479.03;5025555;28;20037;-73
2022/06/07 07:15:46;;;;;;;13.07;7.88;;;;;;;13.25;100.00;95480.94;5028340;28;20033;-75
2022/06/07 07:18:13;;;;;;;15.15;7.90;;;;;;;13.19;100.00;95476.81;5028626;28;20045;-76
2022/06/07 07:20:40;;;;;;;14.88;8.20;;;;;;;13.34;100.00;95481.88;5028562;28;20060;-76
2022/06/07 07:23:05;;;;;;;13.88;8.48;;;;;;;13.26;100.00;95482.53;5026045;28;20491;-75
2022/06/07 07:25:32;;;;;;;18.42;7.65;;;;;;;13.38;100.00;95494.56;5028439;28;20041;-75
2022/06/07 07:27:58;;;;;;;15.90;7.63;;;;;;;13.34;100.00;95500.38;5027836;28;20123;-75
2022/06/07 07:30:23;;;;;;;14.27;7.32;;;;;;;13.20;100.00;95496.09;5022719;28;20072;-76
2022/06/07 07:32:49;;;;;;;13.40;8.07;;;;;;;13.18;100.00;95496.38;5026551;28;20049;-76
2022/06/07 07:35:17;;;;;;;13.70;7.95;;;;;;;13.15;100.00;95507.50;5027115;28;20503;-74
2022/06/07 07:37:43;;;;;;;15.68;8.25;;;;;;;13.15;100.00;95507.50;5031697;28;20041;-77
2022/06/07 07:40:09;;;;;;;15.85;7.75;;;;;;;13.17;100.00;95515.94;5022548;28;20096;-74
2022/06/07 07:42:35;;;;;;;16.90;8.63;;;;;;;13.29;100.00;95513.66;5030011;28;20114;-75
2022/06/07 07:45:00;;;;;;;17.15;8.80;;;;;;;13.22;100.00;95513.22;5030617;28;20499;-76
2022/06/07 07:47:26;;;;;;;18.70;8.43;;;;;;;13.12;100.00;95508.09;5029389;28;20088;-77
2022/06/07 07:49:53;;;;;;;18.30;9.45;;;;;;;13.25;100.00;95512.66;5030621;28;20403;-79
2022/06/07 07:52:19;;;;;;;15.98;9.02;;;;;;;13.11;100.00;95490.66;5029678;28;20084;-80
2022/06/07 07:54:45;;;;;;;21.15;9.15;;;;;;;13.10;100.00;95510.22;5030648;28;20553;-78
2022/06/07 07:57:11;;;;;;;19.10;8.90;;;;;;;13.29;100.00;95513.66;5031435;28;20107;-75
2022/06/07 07:59:36;;;;;;;16.85;9.27;;;;;;;13.17;100.00;95515.94;5031379;28;20096;-74
2022/06/07 08:02:02;;;;;;;24.85;9.18;;;;;;;13.23;100.00;95525.38;5029471;28;20053;-73
2022/06/07 08:04:28;;;;;;;15.25;8.48;;;;;;;13.18;100.00;95517.50;5030974;28;20040;-74
2022/06/07 08:06:54;;;;;;;16.00;7.53;;;;;;;13.06;100.00;95525.06;5031376;28;20046;-76
2022/06/07 08:09:22;;;;;;;15.45;8.23;;;;;;;13.17;100.00;95531.78;5030103;28;20049;-77
2022/06/07 08:11:48;;;;;;;17.00;6.85;;;;;;;13.15;100.00;95518.09;5029043;28;20053;-75
2022/06/07 08:14:18;;;;;;;14.05;7.57;;;;;;;13.06;100.00;95514.50;5030702;28;20561;-73
2022/06/07 08:16:44;;;;;;;17.98;8.38;;;;;;;12.98;100.00;95508.00;5030973;28;20041;-73
2022/06/07 08:19:11;;;;;;;11.57;6.95;;;;;;;13.07;100.00;95505.50;5028206;28;20037;-73
2022/06/07 08:21:38;;;;;;;16.45;8.02;;;;;;;12.87;100.00;95512.63;5030623;28;20045;-70
2022/06/07 08:24:04;;;;;;;18.92;9.32;;;;;;;13.08;100.00;95512.38;5029635;28;20049;-73
2022/06/07 08:26:31;;;;;;;20.10;9.25;;;;;;;13.21;100.00;95503.72;5025865;28;20401;-73
2022/06/07 08:28:56;;;;;;;14.90;8.73;;;;;;;12.97;100.00;95512.50;5028194;28;20041;-73
2022/06/07 08:31:25;;;;;;;15.00;8.90;;;;;;;13.06;100.00;95509.22;5029224;28;20037;-76
2022/06/07 08:39:20;;;;;;;15.00;7.93;;;;;;;13.12;100.00;95518.66;5033709;28;20071;-73
2022/06/07 08:42:00;;;;;;;12.50;7.70;;;;;;;13.12;100.00;95518.66;5028355;28;20095;-73
2022/06/07 08:44:33;;;;;;;13.93;8.15;;;;;;;13.29;100.00;95518.94;5019435;28;20051;-73
2022/06/07 08:47:04;;;;;;;12.68;7.57;;;;;;;13.34;100.00;95521.53;5030714;28;20048;-73
2022/06/07 08:49:30;;;;;;;13.85;7.63;;;;;;;13.37;100.00;95519.41;5028663;28;20130;-75
2022/06/07 08:52:02;;;;;;;18.80;8.35;;;;;;;13.52;100.00;95522.59;5023399;28;20133;-73
2022/06/07 08:54:34;;;;;;;11.18;6.43;;;;;;;13.67;100.00;95529.50;5029914;28;20033;-73
2022/06/07 08:57:07;;;;;;;12.10;7.10;;;;;;;13.73;100.00;95521.50;5029841;28;20056;-73
2022/06/07 08:59:32;;;;;;;15.02;8.25;;;;;;;13.69;100.00;95532.66;5028761;28;20095;-73
2022/06/07 09:02:26;;;;;;;12.65;7.47;;;;;;;13.63;100.00;95528.53;5029643;28;20041;-73
2022/06/07 09:04:52;;;;;;;13.90;7.70;;;;;;;13.64;100.00;95534.59;5029823;28;20061;-73
2022/06/07 09:07:20;;;;;;;8.60;5.85;;;;;;;13.72;100.00;95530.50;5029293;28;20049;-72
2022/06/07 09:12:37;;;;;;;11.07;6.22;;;;;;;13.58;100.00;95525.97;5025108;28;20044;-73
2022/06/07 09:15:11;;;;;;;12.63;6.28;;;;;;;13.61;100.00;95530.66;5030335;28;20408;-73
2022/06/07 09:17:45;;;;;;;10.38;6.70;;;;;;;13.60;100.00;95529.09;5014608;28;20042;-73
2022/06/07 09:20:27;;;;;;;14.93;7.38;;;;;;;13.64;100.00;95530.09;5028464;28;20091;-72
2022/06/07 09:23:14;;;;;;;10.98;6.80;;;;;;;13.72;100.00;95530.50;5024979;28;20045;-73
2022/06/07 09:25:48;;;;;;;11.10;6.72;;;;;;;13.69;100.00;95519.44;5030189;28;20113;-73
2022/06/07 09:28:30;;;;;;;11.20;6.07;;;;;;;13.83;100.00;95521.34;5029829;28;20045;-75
2022/06/07 09:31:13;;;;;;;10.05;6.43;;;;;;;13.79;100.00;95521.16;5026773;28;20041;-73
2022/06/07 09:34:05;;;;;;;13.57;7.15;;;;;;;13.88;100.00;95523.91;5030780;28;20041;-78
2022/06/07 09:36:35;;;;;;;9.07;6.40;;;;;;;13.76;100.00;95515.63;5028701;28;20531;-78
2022/06/07 09:39:07;;;;;;;11.63;7.18;;;;;;;13.80;100.00;95522.69;5030601;28;20030;-78
2022/06/07 09:41:58;;;;;;;11.93;7.03;;;;;;;13.85;100.00;95524.50;5029759;28;20041;-82
2022/06/07 09:45:00;;;;;;;13.07;8.23;;;;;;;13.97;100.00;95516.88;5029976;28;20414;-83
2022/06/07 09:47:30;;;;;;;14.80;9.27;;;;;;;14.18;100.00;95525.25;5032153;28;20037;-72
2022/06/07 09:50:11;;;;;;;17.48;9.93;;;;;;;14.37;100.00;95530.47;5026040;28;20038;-73
2022/06/07 09:52:52;;;;;;;15.43;9.82;;;;;;;14.36;100.00;95528.88;5024769;28;20702;-75
2022/06/07 09:55:24;;;;;;;15.32;8.98;;;;;;;14.27;100.00;95535.19;5027749;28;20048;-72
2022/06/07 09:57:56;;;;;;;15.88;9.13;;;;;;;14.24;100.00;95520.66;5027839;28;20069;-75
2022/06/07 10:00:32;;;;;;;14.77;9.43;;;;;;;14.09;100.00;95528.84;5022521;28;20795;-73
2022/06/07 10:03:24;;;;;;;15.93;9.82;;;;;;;14.18;100.00;95524.47;5028761;28;20096;-74
2022/06/07 10:05:49;;;;;;;16.73;9.27;;;;;;;14.04;100.00;95522.56;5029286;28;20045;-75
2022/06/07 10:08:34;;;;;;;15.43;9.55;;;;;;;13.92;100.00;95530.19;5026735;28;20554;-74
2022/06/07 10:11:14;;;;;;;16.08;9.23;;;;;;;13.92;100.00;95530.19;5029543;28;20045;-74
2022/06/07 10:13:52;;;;;;;14.73;9.02;;;;;;;13.79;100.00;95515.84;5023586;28;20041;-72
2022/06/07 10:16:30;;;;;;;17.50;8.38;;;;;;;13.74;100.00;95523.09;5028460;28;20033;-73
2022/06/07 10:19:12;;;;;;;11.55;7.13;;;;;;;13.75;100.00;95520.16;5026592;28;20041;-73
2022/06/07 10:21:50;;;;;;;16.55;7.38;;;;;;;13.82;100.00;95525.84;5024894;28;20041;-74
2022/06/07 10:24:47;;;;;;;14.20;7.43;;;;;;;13.73;100.00;95516.22;5022282;28;20518;-72
2022/06/07 10:27:40;;;;;;;12.45;7.45;;;;;;;13.90;100.00;95521.75;5028689;28;20041;-73
2022/06/07 10:30:44;;;;;;;14.10;8.23;;;;;;;14.12;100.00;95522.97;5021475;28;20495;-73
2022/06/07 10:33:48;;;;;;;17.02;9.23;;;;;;;14.16;100.00;95514.16;5024436;28;20065;-72
2022/06/07 10:36:37;;;;;;;19.63;8.88;;;;;;;14.22;100.00;95517.50;5018871;28;20046;-72
2022/06/07 10:39:31;;;;;;;20.05;10.15;;;;;;;14.24;100.00;95519.84;5028521;28;20041;-72
2022/06/07 10:42:21;;;;;;;19.73;9.88;;;;;;;14.42;100.00;95515.56;5027848;28;20042;-72
2022/06/07 10:45:03;;;;;;;17.80;10.15;;;;;;;14.45;100.00;95520.28;5023403;28;20049;-72
2022/06/07 10:47:56;;;;;;;16.85;10.48;;;;;;;14.84;100.00;95516.38;5027845;28;20545;-72
2022/06/07 10:50:28;;;;;;;16.38;9.95;;;;;;;14.89;100.00;95513.63;5020907;28;20400;-74
2022/06/07 10:53:40;;;;;;;15.82;9.68;;;;;;;14.84;100.00;95511.06;5028467;28;20045;-72
2022/06/07 10:56:22;;;;;;;17.48;9.60;;;;;;;14.62;100.00;95504.63;5005716;28;20435;-73
2022/06/07 10:58:53;;;;;;;12.65;8.13;;;;;;;14.79;100.00;95505.91;5025705;28;20521;-72
2022/06/07 11:01:24;;;;;;;14.55;10.00;;;;;;;14.66;100.00;95502.94;5028724;28;20148;-72
2022/06/07 11:09:59;;;;;;;11.93;8.60;;;;;;;15.07;100.00;95502.13;5028811;28;20143;-70
2022/06/07 11:12:35;;;;;;;16.55;9.75;;;;;;;15.37;100.00;95502.53;5031334;28;20041;-72
2022/06/07 11:15:07;;;;;;;16.00;8.48;;;;;;;15.55;100.00;95494.72;5030144;28;20052;-71
2022/06/07 11:17:45;;;;;;;17.63;9.43;;;;;;;15.87;100.00;95495.56;5030242;28;20057;-71
2022/06/07 11:20:22;;;;;;;10.23;7.10;;;;;;;15.80;100.00;95497.88;5030668;28;20038;-71
2022/06/07 11:22:55;;;;;;;12.13;7.22;;;;;;;15.94;100.00;95493.28;5032212;28;20793;-71
2022/06/07 11:25:33;;;;;;;13.88;6.82;;;;;;;15.81;100.00;95494.13;5029822;28;20038;-71
2022/06/07 11:28:11;;;;;;;13.95;7.03;;;;;;;15.61;100.00;95488.19;5029482;28;20049;-72
2022/06/07 11:30:37;;;;;;;11.57;6.90;;;;;;;15.82;100.00;95490.41;5021824;28;20038;-71
2022/06/07 11:33:34;;;;;;;10.13;6.32;;;;;;;15.95;100.00;95492.19;5028597;28;20187;-71
2022/06/07 11:36:08;;;;;;;;;;;;;;;16.25;100.00;95495.16;5013876;28;20529;-71
2022/06/07 11:38:55;;;;;;;7.72;5.47;;;;;;;16.45;100.00;95481.31;5028807;28;19929;-73
2022/06/07 11:41:39;;;;;;;8.52;4.80;;;;;;;16.68;100.00;95489.22;5029242;28;20102;-71
2022/06/07 11:44:07;;;;;;;10.38;5.50;;;;;;;16.25;100.00;95482.66;5029910;28;20052;-73
2022/06/07 11:46:33;;;;;;;6.82;4.15;;;;;;;16.71;100.00;95483.28;5029982;28;20159;-71
2022/06/07 11:49:29;;;;;;;4.70;3.38;;;;;;;16.68;100.00;95489.22;5030793;28;20768;-70
2022/06/07 11:52:14;;;;;;;6.18;3.53;;;;;;;16.37;100.00;95483.94;5029466;28;20056;-71
2022/06/07 11:54:45;;;;;;;5.25;3.58;;;;;;;16.23;100.00;95492.00;5028079;28;20120;-72